Terminal Aerodrome Forecast
Issued by NWS Grand Junction, CO

Home | Current Version | Previous Version | Text Only | Print | Product List | Glossary On
Versions: 1 2 3 4 5 6 7 8 9 10 11 12 13 14 15 16 17 18 19 20 21 22 23 24 25 26 27 28 29
000
FTUS45 KGJT 301726
TAFGJT
TAF
KGJT 301726Z 3018/3118 17008KT P6SM FEW120 BKN150
     FM302100 26008KT P6SM SCT100 SCT150
     FM310300 13011KT P6SM SCT150
     FM311700 22004KT P6SM SCT200=

USA.gov is the U.S. government's official web portal to all federal, state and local government web resources and services.